Time;durP1;ratioP1;P1;durP2;ratioP2;P2;SDS_P1;SDS_P2;PMS_P1;PMS_P2;Temp;Humidity;BMP_temperature;BMP_pressure;BME280_temperature;BME280_humidity;BME280_pressure;Samples;Min_cycle;Max_cycle;Signal;HPM_P1;HPM_P2
2021/12/16 00:07:12;;;;;;;15.88;7.93;;;;;;;14.70;64.64;103305.78;5123897;27;20038;-63
2021/12/16 00:31:30;;;;;;;17.02;8.00;;;;;;;14.58;65.13;103307.44;5117142;27;20073;-64
2021/12/16 00:34:01;;;;;;;13.25;7.68;;;;;;;14.59;65.00;103311.78;5097866;28;20033;-65
2021/12/16 00:36:29;;;;;;;15.02;8.05;;;;;;;14.53;65.15;103303.88;5114201;28;20043;-63
2021/12/16 00:38:54;;;;;;;15.00;8.07;;;;;;;14.55;65.04;103311.75;5114366;28;20058;-64
2021/12/16 00:41:20;;;;;;;15.00;7.97;;;;;;;14.54;64.89;103318.72;5114699;28;20448;-65
2021/12/16 00:47:12;;;;;;;14.88;7.60;;;;;;;14.55;64.92;103310.00;5079419;28;20048;-65
2021/12/16 00:49:44;;;;;;;14.68;7.75;;;;;;;14.56;65.09;103311.75;5114073;28;20377;-63
2021/12/16 00:55:07;;;;;;;15.40;8.07;;;;;;;14.60;64.96;103317.88;5114207;28;20043;-64
2021/12/16 00:57:33;;;;;;;14.60;7.80;;;;;;;14.56;65.25;103313.50;5117678;27;20044;-64
2021/12/16 01:00:02;;;;;;;13.50;7.40;;;;;;;14.59;65.07;103311.78;5134023;27;20477;-63
2021/12/16 01:50:15;;;;;;;14.18;7.32;;;;;;;14.53;65.23;103353.53;5133906;27;20393;-63
2021/12/16 01:55:36;;;;;;;15.05;7.95;;;;;;;14.48;65.50;103344.81;5134413;27;20366;-64
2021/12/16 01:58:16;;;;;;;16.95;8.23;;;;;;;14.49;65.48;103352.66;5133726;27;20102;-64
2021/12/16 02:03:45;;;;;;;13.07;7.22;;;;;;;14.53;65.31;103361.38;5134433;27;20043;-64
2021/12/16 02:08:48;;;;;;;14.55;7.57;;;;;;;14.50;65.35;103361.38;5133748;27;20370;-65
2021/12/16 02:35:33;;;;;;;13.07;7.38;;;;;;;14.48;65.45;103376.16;5133927;28;20036;-64
2021/12/16 02:38:02;;;;;;;12.57;7.15;;;;;;;14.49;65.22;103370.94;5133771;28;20035;-64
2021/12/16 02:40:28;;;;;;;13.18;7.32;;;;;;;14.44;65.23;103362.19;5133696;27;20113;-65
2021/12/16 02:43:10;;;;;;;13.80;7.30;;;;;;;14.49;65.20;103375.31;5137579;27;20118;-65
2021/12/16 02:48:40;;;;;;;12.38;7.32;;;;;;;14.45;65.31;103378.72;5137833;27;20077;-64
2021/12/16 02:51:10;;;;;;;12.98;7.20;;;;;;;14.49;65.30;103388.38;5138041;27;20031;-65
2021/12/16 02:53:40;;;;;;;13.48;6.85;;;;;;;14.49;65.19;103380.53;5137923;27;20114;-65
2021/12/16 02:56:05;;;;;;;13.52;7.32;;;;;;;14.49;64.91;103375.31;5137508;27;20391;-65
2021/12/16 02:58:34;;;;;;;13.77;7.17;;;;;;;14.50;64.82;103374.44;5137241;27;20027;-64
2021/12/16 03:01:12;;;;;;;13.13;7.00;;;;;;;14.48;65.20;103371.78;5137252;27;20301;-65
2021/12/16 03:03:39;;;;;;;13.40;6.97;;;;;;;14.50;64.91;103369.22;5137888;27;20080;-64
2021/12/16 03:06:05;;;;;;;12.73;6.80;;;;;;;14.51;65.32;103376.19;5137733;27;20031;-65
2021/12/16 03:08:33;;;;;;;13.20;7.15;;;;;;;14.50;65.30;103371.81;5137558;27;20027;-65
2021/12/16 03:14:04;;;;;;;12.15;6.78;;;;;;;14.49;65.35;103375.31;5137598;27;20054;-64
2021/12/16 03:16:47;;;;;;;12.05;6.85;;;;;;;14.48;65.39;103373.53;5137591;27;20080;-64
2021/12/16 03:22:09;;;;;;;12.52;7.10;;;;;;;14.45;65.41;103368.28;5109478;27;20038;-64
2021/12/16 03:32:57;;;;;;;12.35;7.03;;;;;;;14.36;65.53;103369.97;5136750;27;20060;-64
2021/12/16 03:35:41;;;;;;;13.38;7.00;;;;;;;14.42;65.42;103371.75;5134614;27;20050;-64
2021/12/16 03:38:09;;;;;;;12.10;6.88;;;;;;;14.41;65.43;103376.97;5137323;27;20027;-64
2021/12/16 03:40:37;;;;;;;12.13;6.38;;;;;;;14.43;65.35;103376.13;5136918;27;20027;-65
2021/12/16 03:43:13;;;;;;;12.88;7.03;;;;;;;14.45;65.18;103378.72;5118534;27;20422;-64
2021/12/16 03:48:37;;;;;;;10.93;6.50;;;;;;;14.43;65.50;103383.06;5137044;27;20088;-63
2021/12/16 03:51:15;;;;;;;13.75;6.80;;;;;;;14.46;65.40;103385.72;5136346;27;20461;-64
2021/12/16 03:53:43;;;;;;;13.40;7.22;;;;;;;14.45;65.09;103390.06;5136708;27;20075;-64
2021/12/16 03:56:10;;;;;;;11.98;6.88;;;;;;;14.39;65.46;103390.00;5136412;27;20472;-64
2021/12/16 03:58:37;;;;;;;10.65;6.40;;;;;;;14.46;65.23;103406.63;5136772;27;20035;-64
2021/12/16 04:01:06;;;;;;;10.35;6.20;;;;;;;14.43;65.22;103399.63;5136562;27;20525;-63
2021/12/16 04:03:32;;;;;;;11.57;6.50;;;;;;;14.45;65.42;103397.03;5136556;27;20015;-64
2021/12/16 04:05:59;;;;;;;10.40;6.50;;;;;;;14.44;65.10;103397.88;5136425;27;20027;-65
2021/12/16 04:08:24;;;;;;;11.30;6.65;;;;;;;14.44;65.41;103395.28;5136438;27;20027;-64
2021/12/16 04:11:05;;;;;;;12.03;6.60;;;;;;;14.36;65.27;103395.19;5136499;27;20522;-64
2021/12/16 04:13:36;;;;;;;12.35;6.50;;;;;;;14.40;65.04;103399.59;5136577;27;20019;-64
2021/12/16 04:16:03;;;;;;;11.38;6.30;;;;;;;14.37;65.40;103386.50;5135630;27;20358;-64
2021/12/16 04:18:28;;;;;;;;;;;;;;;14.54;64.86;103393.63;5136603;27;20039;-65
2021/12/16 04:20:54;;;;;;;12.00;6.43;;;;;;;14.47;65.12;103404.00;5135774;27;19915;-64
2021/12/16 04:23:20;;;;;;;11.53;6.57;;;;;;;14.34;65.41;103387.34;5135896;27;20023;-64
2021/12/16 04:25:47;;;;;;;11.57;6.60;;;;;;;14.44;65.12;103398.78;5136302;27;20039;-65
2021/12/16 04:28:21;;;;;;;11.80;6.68;;;;;;;14.41;65.08;103390.03;5136074;27;20023;-64
2021/12/16 04:30:48;;;;;;;11.30;6.40;;;;;;;14.44;65.25;103403.09;5135882;27;20034;-65
2021/12/16 04:33:13;;;;;;;10.35;6.30;;;;;;;14.44;65.35;103403.09;5135727;27;20574;-65
2021/12/16 04:35:39;;;;;;;10.93;6.40;;;;;;;14.39;65.48;103386.53;5135959;27;20461;-64
2021/12/16 04:38:07;;;;;;;12.25;6.47;;;;;;;14.37;65.25;103383.88;5136132;27;20109;-65
2021/12/16 04:40:35;;;;;;;11.27;6.28;;;;;;;14.41;65.20;103395.25;5135657;27;20488;-64
2021/12/16 04:43:02;;;;;;;10.35;6.00;;;;;;;14.43;65.12;103390.91;5135352;27;20534;-64
2021/12/16 04:45:28;;;;;;;;;;;;;;;14.51;64.82;103391.88;5135973;27;20054;-65
2021/12/16 04:47:54;;;;;;;;;;;;;;;14.52;64.60;103394.50;5136168;27;19911;-65
2021/12/16 04:50:19;;;;;;;10.20;5.90;;;;;;;14.43;65.18;103394.41;5135827;27;19917;-65
2021/12/16 04:52:45;;;;;;;12.03;6.40;;;;;;;14.45;65.04;103394.41;5135763;27;20050;-65
2021/12/16 04:55:13;;;;;;;10.60;6.00;;;;;;;14.39;65.31;103389.16;5136228;27;20062;-64
2021/12/16 04:57:39;;;;;;;10.90;6.40;;;;;;;14.36;65.00;103393.47;5135435;27;20059;-64
2021/12/16 05:00:07;;;;;;;;;;;;;;;14.50;64.66;103400.56;5135645;27;20031;-64
2021/12/16 05:02:33;;;;;;;11.40;6.40;;;;;;;14.39;64.99;103397.84;5135280;27;19915;-64
2021/12/16 05:04:58;;;;;;;11.27;6.20;;;;;;;14.38;65.01;103390.84;5134975;27;20392;-65
2021/12/16 05:07:23;;;;;;;11.03;5.83;;;;;;;14.40;64.88;103393.50;5135192;27;20054;-64
2021/12/16 05:12:19;;;;;;;11.70;6.30;;;;;;;14.41;65.22;103395.25;5134736;27;20039;-64
2021/12/16 05:14:45;;;;;;;10.82;6.03;;;;;;;14.41;65.28;103390.91;5134724;27;20488;-65
2021/12/16 05:17:24;;;;;;;12.02;6.43;;;;;;;14.45;65.34;103404.88;5134790;27;20033;-65
2021/12/16 05:19:51;;;;;;;11.32;6.15;;;;;;;14.43;65.34;103406.56;5135112;27;20131;-64
2021/12/16 05:25:05;;;;;;;10.65;6.15;;;;;;;14.40;65.32;103396.13;5134951;27;20041;-64
2021/12/16 05:27:31;;;;;;;10.15;6.15;;;;;;;14.44;65.11;103403.09;5134776;27;20023;-64
2021/12/16 05:29:56;;;;;;;11.73;6.27;;;;;;;14.43;65.19;103410.09;5116032;27;20038;-65
2021/12/16 05:32:23;;;;;;;10.50;6.00;;;;;;;14.39;65.30;103415.25;5134903;27;20431;-65
2021/12/16 05:34:49;;;;;;;10.98;5.93;;;;;;;14.37;65.15;103407.41;5134753;27;20027;-64
2021/12/16 05:37:14;;;;;;;12.17;6.40;;;;;;;14.39;65.29;103418.75;5134587;27;20027;-63
2021/12/16 05:39:40;;;;;;;11.23;6.47;;;;;;;14.41;65.31;103408.31;5115142;27;20484;-64
2021/12/16 05:42:06;;;;;;;10.73;6.10;;;;;;;14.39;65.22;103421.34;5134620;27;20065;-64
2021/12/16 05:44:31;;;;;;;11.30;6.20;;;;;;;14.38;65.16;103426.56;5134159;27;20039;-64
2021/12/16 05:46:56;;;;;;;12.60;6.30;;;;;;;14.36;65.17;103422.22;5134613;27;20076;-64
2021/12/16 05:49:22;;;;;;;10.33;5.77;;;;;;;14.36;65.37;103427.44;5116354;27;20083;-64
2021/12/16 05:51:50;;;;;;;9.63;5.90;;;;;;;14.40;65.29;103430.09;5134708;27;20034;-64
2021/12/16 05:54:17;;;;;;;11.52;6.10;;;;;;;14.36;65.24;103431.75;5133840;27;20444;-64
2021/12/16 05:56:44;;;;;;;11.35;6.07;;;;;;;14.39;65.41;103433.56;5134007;27;20046;-64
2021/12/16 05:59:12;;;;;;;;;;;;;;;14.48;64.82;103438.88;5134593;27;20027;-64
2021/12/16 06:01:39;;;;;;;9.27;5.55;;;;;;;14.36;65.19;103440.50;5133894;27;20326;-65
2021/12/16 06:04:06;;;;;;;9.68;5.80;;;;;;;14.37;65.28;103454.41;5134094;27;20560;-65
2021/12/16 06:06:32;;;;;;;10.98;5.90;;;;;;;14.35;65.09;103457.03;5134352;27;20399;-64
2021/12/16 06:08:59;;;;;;;12.03;5.90;;;;;;;14.34;65.13;103457.88;5132812;27;20141;-64
2021/12/16 06:11:29;;;;;;;11.73;6.32;;;;;;;14.39;65.35;103457.94;5133299;27;20023;-64
2021/12/16 06:14:22;;;;;;;11.43;5.85;;;;;;;14.27;65.38;103442.13;5133197;27;20453;-65
2021/12/16 06:27:55;;;;;;;12.32;6.90;;;;;;;14.40;65.07;103464.06;5125827;28;20043;-64
2021/12/16 06:30:25;;;;;;;15.40;6.97;;;;;;;14.40;65.18;103461.44;5121397;28;20035;-65
2021/12/16 06:32:51;;;;;;;14.80;6.95;;;;;;;14.40;65.02;103472.75;5113523;28;20505;-64
2021/12/16 06:35:18;;;;;;;26.77;6.80;;;;;;;14.41;65.15;103478.88;5113340;28;20115;-64
2021/12/16 06:37:43;;;;;;;;;;;;;;;14.47;64.76;103477.16;5113636;28;20027;-63
2021/12/16 06:40:09;;;;;;;16.17;7.40;;;;;;;14.30;64.85;103457.84;5127851;28;19922;-61
2021/12/16 06:42:37;;;;;;;14.70;7.22;;;;;;;14.31;64.87;103463.06;5133210;28;20031;-62
2021/12/16 06:45:09;;;;;;;16.50;7.38;;;;;;;14.31;65.24;103464.81;5113053;28;20035;-62
2021/12/16 06:50:07;;;;;;;14.63;6.95;;;;;;;14.28;65.55;103463.06;5112700;28;20040;-62
2021/12/16 06:52:39;;;;;;;15.23;6.70;;;;;;;14.34;65.43;103468.34;5112619;28;20493;-62
2021/12/16 06:55:20;;;;;;;14.95;6.70;;;;;;;14.31;65.39;103473.53;5113010;28;20040;-63
2021/12/16 06:57:52;;;;;;;14.45;6.75;;;;;;;14.33;65.52;103474.41;5096635;28;20065;-62
2021/12/16 07:00:29;;;;;;;14.45;6.88;;;;;;;14.28;65.35;103468.28;5095458;28;20036;-63
2021/12/16 07:03:01;;;;;;;12.73;6.53;;;;;;;14.28;65.51;103477.84;5112741;28;20451;-62
2021/12/16 07:05:33;;;;;;;14.73;6.85;;;;;;;14.31;65.44;103486.56;5112159;28;20147;-61
2021/12/16 07:08:00;;;;;;;14.65;6.75;;;;;;;14.32;65.52;103490.94;5112623;28;20102;-62
2021/12/16 07:10:29;;;;;;;15.73;6.90;;;;;;;14.27;65.41;103474.34;5112948;28;20038;-62
2021/12/16 07:12:57;;;;;;;12.68;6.78;;;;;;;14.30;65.40;103481.34;5113096;28;20461;-63
2021/12/16 07:15:26;;;;;;;15.07;6.50;;;;;;;14.28;65.46;103494.41;5112863;28;20036;-62
2021/12/16 07:17:52;;;;;;;14.07;7.10;;;;;;;14.26;65.49;103488.28;5112342;28;20478;-62
2021/12/16 07:20:22;;;;;;;13.73;6.60;;;;;;;14.27;65.40;103492.66;5112937;28;20078;-62
2021/12/16 07:22:48;;;;;;;13.00;6.40;;;;;;;14.25;65.33;103493.47;5112763;28;20024;-62
2021/12/16 07:25:13;;;;;;;13.20;6.90;;;;;;;14.28;65.25;103511.78;5113031;28;20514;-62
2021/12/16 07:27:39;;;;;;;12.30;6.63;;;;;;;14.29;65.09;103522.28;5095850;28;20032;-62
2021/12/16 07:30:09;;;;;;;12.70;6.30;;;;;;;14.27;65.33;103516.16;5116476;28;20028;-61
2021/12/16 07:32:35;;;;;;;15.40;6.78;;;;;;;14.26;65.31;103530.06;5116204;28;20111;-62
2021/12/16 07:35:02;;;;;;;12.50;6.30;;;;;;;14.18;65.36;103513.44;5116385;28;20146;-62
2021/12/16 07:37:27;;;;;;;12.75;6.75;;;;;;;14.26;65.36;103535.28;5116482;28;20262;-63
2021/12/16 07:39:53;;;;;;;12.23;5.97;;;;;;;14.23;65.21;103530.03;5123749;27;20381;-62
2021/12/16 07:42:26;;;;;;;13.27;6.37;;;;;;;14.23;65.38;103531.78;5136390;27;20039;-61
2021/12/16 07:44:52;;;;;;;11.77;6.20;;;;;;;14.19;65.41;103542.16;5136092;27;20047;-62
2021/12/16 07:47:18;;;;;;;14.05;6.10;;;;;;;14.18;65.34;103540.41;5136235;27;20055;-62
2021/12/16 07:49:43;;;;;;;11.27;6.13;;;;;;;14.23;65.21;103557.91;5130455;27;20421;-62
2021/12/16 07:52:13;;;;;;;11.53;5.63;;;;;;;14.15;65.36;103557.78;5118052;27;20494;-62
2021/12/16 07:54:38;;;;;;;11.90;6.03;;;;;;;14.16;65.52;103559.53;5136413;27;20029;-62
2021/12/16 07:57:05;;;;;;;11.67;6.30;;;;;;;14.25;65.27;103582.28;5136230;27;20031;-62
2021/12/16 07:59:33;;;;;;;11.25;5.85;;;;;;;14.18;65.21;103582.22;5136246;27;20024;-63
2021/12/16 08:01:59;;;;;;;11.60;5.93;;;;;;;14.21;65.24;103589.19;5135478;27;20051;-62
2021/12/16 08:04:29;;;;;;;12.80;6.22;;;;;;;14.23;65.38;103589.25;5129939;27;20027;-62
2021/12/16 08:07:00;;;;;;;10.70;5.60;;;;;;;14.23;65.46;103587.50;5135500;27;20027;-62
2021/12/16 08:09:26;;;;;;;10.77;5.70;;;;;;;14.21;65.20;103589.19;5130434;27;20027;-61
2021/12/16 08:11:52;;;;;;;11.20;5.87;;;;;;;14.22;65.33;103593.56;5136039;27;20469;-62
2021/12/16 08:14:19;;;;;;;12.60;6.15;;;;;;;14.21;65.38;103590.09;5136190;27;20023;-61
2021/12/16 08:16:45;;;;;;;11.45;5.75;;;;;;;14.21;65.26;103595.31;5136191;27;20035;-62
2021/12/16 08:19:10;;;;;;;11.27;5.33;;;;;;;14.19;65.36;103610.09;5136224;27;20019;-62
2021/12/16 08:21:38;;;;;;;11.10;5.37;;;;;;;14.22;65.09;103619.69;5136222;27;20461;-63
2021/12/16 08:24:07;;;;;;;9.05;5.30;;;;;;;14.23;65.42;103610.13;5136215;27;20388;-62
2021/12/16 08:26:35;;;;;;;12.13;5.78;;;;;;;14.23;65.22;103613.59;5136193;27;20407;-62
2021/12/16 08:29:01;;;;;;;8.93;5.47;;;;;;;14.24;65.14;103623.19;5135219;27;20111;-62
2021/12/16 08:31:27;;;;;;;9.85;5.43;;;;;;;14.18;65.14;103621.38;5135599;27;20122;-62
2021/12/16 08:33:53;;;;;;;9.63;5.35;;;;;;;14.25;65.10;103618.84;5135924;27;20023;-62
2021/12/16 08:36:19;;;;;;;9.53;5.43;;;;;;;14.24;64.97;103620.59;5134629;27;20096;-62
2021/12/16 08:38:45;;;;;;;11.57;5.40;;;;;;;14.22;65.04;103632.75;5134466;27;20080;-62
2021/12/16 08:41:23;;;;;;;10.40;5.70;;;;;;;14.23;65.08;103620.59;5135495;27;20396;-62
2021/12/16 08:43:49;;;;;;;10.40;5.10;;;;;;;14.24;65.07;103620.59;5135640;27;20486;-62
2021/12/16 08:46:18;;;;;;;10.88;5.57;;;;;;;14.18;64.98;103623.13;5135584;27;20076;-62
2021/12/16 08:48:46;;;;;;;10.80;5.65;;;;;;;14.19;65.08;103630.97;5135308;27;20492;-61
2021/12/16 08:51:14;;;;;;;11.65;5.30;;;;;;;14.18;65.08;103636.19;5134490;27;20035;-62
2021/12/16 08:53:40;;;;;;;10.25;5.32;;;;;;;14.22;64.97;103643.19;5135288;27;20427;-62
2021/12/16 08:56:06;;;;;;;10.13;5.38;;;;;;;14.21;65.11;103654.50;5134737;27;20062;-62
2021/12/16 08:58:33;;;;;;;9.35;5.20;;;;;;;14.22;64.94;103661.47;5134574;27;20035;-62
2021/12/16 09:01:07;;;;;;;10.63;5.30;;;;;;;14.22;65.26;103653.63;5134986;27;20027;-62
2021/12/16 09:03:34;;;;;;;10.45;5.38;;;;;;;14.20;65.25;103655.34;5135846;27;20524;-62
2021/12/16 09:05:59;;;;;;;10.73;5.45;;;;;;;14.24;64.83;103669.34;5135044;27;20039;-62
2021/12/16 09:08:25;;;;;;;11.90;5.50;;;;;;;14.23;64.96;103665.00;5135264;27;20046;-62
2021/12/16 09:10:51;;;;;;;8.10;4.80;;;;;;;14.18;64.93;103659.69;5134921;27;20058;-62
2021/12/16 09:13:17;;;;;;;9.80;4.97;;;;;;;14.21;64.97;103662.34;5135112;27;20537;-63
2021/12/16 09:15:48;;;;;;;10.90;5.18;;;;;;;14.24;64.86;103653.69;5133466;27;20027;-62
2021/12/16 09:18:17;;;;;;;7.85;4.70;;;;;;;14.19;64.98;103650.97;5135191;27;20026;-62
2021/12/16 09:20:42;;;;;;;8.20;4.80;;;;;;;14.28;65.05;103666.81;5135245;27;20023;-62
2021/12/16 09:23:09;;;;;;;10.20;5.13;;;;;;;14.30;65.00;103669.44;5134883;27;20147;-62
2021/12/16 09:25:35;;;;;;;;;;;;;;;14.37;64.80;103673.88;5134568;27;20031;-62
2021/12/16 09:28:00;;;;;;;10.37;5.30;;;;;;;14.32;65.01;103673.81;5133950;27;19926;-63
2021/12/16 09:30:27;;;;;;;8.00;4.60;;;;;;;14.31;65.16;103669.44;5133414;27;20380;-61
2021/12/16 09:32:57;;;;;;;9.02;5.03;;;;;;;14.29;64.94;103673.78;5132930;27;20031;-61
2021/12/16 09:35:23;;;;;;;9.52;5.07;;;;;;;14.31;65.15;103668.56;5132875;27;20488;-61
2021/12/16 09:37:49;;;;;;;10.15;5.10;;;;;;;14.29;65.02;103662.44;5133423;27;20029;-62
2021/12/16 09:40:21;;;;;;;11.60;4.90;;;;;;;14.34;65.00;103681.69;5134993;27;20041;-63
2021/12/16 09:42:48;;;;;;;12.77;5.35;;;;;;;14.30;64.89;103678.13;5134704;27;20110;-64
2021/12/16 09:45:15;;;;;;;11.10;5.28;;;;;;;14.31;64.69;103668.56;5135346;27;20027;-62
2021/12/16 09:47:43;;;;;;;8.45;5.28;;;;;;;14.35;64.77;103673.00;5134792;27;20373;-61
2021/12/16 09:50:11;;;;;;;9.70;5.50;;;;;;;14.35;64.54;103684.31;5134569;27;20118;-62
2021/12/16 09:52:38;;;;;;;11.00;4.90;;;;;;;14.30;64.44;103667.69;5134377;27;20023;-61
2021/12/16 09:55:06;;;;;;;8.77;5.20;;;;;;;14.31;64.26;103652.91;5134190;27;20031;-62
2021/12/16 09:57:32;;;;;;;13.70;5.63;;;;;;;14.33;64.33;103667.72;5133671;27;20015;-61
2021/12/16 09:59:57;;;;;;;9.80;5.50;;;;;;;14.32;64.33;103675.56;5133991;27;20038;-63
2021/12/16 10:02:23;;;;;;;11.40;5.17;;;;;;;14.33;64.31;103672.97;5134532;27;20059;-62
2021/12/16 10:04:49;;;;;;;10.93;5.47;;;;;;;14.28;64.09;103660.69;5134604;27;20035;-61
2021/12/16 10:07:25;;;;;;;9.50;5.20;;;;;;;14.36;64.11;103673.00;5134385;27;20049;-62
2021/12/16 10:09:51;;;;;;;;;;;;;;;14.44;64.05;103678.34;5134800;27;20019;-62
2021/12/16 10:12:21;;;;;;;8.77;5.05;;;;;;;14.39;64.05;103677.38;5134492;27;19922;-62
2021/12/16 10:17:26;;;;;;;9.80;5.10;;;;;;;14.36;63.93;103677.34;5133701;27;20096;-62
2021/12/16 10:19:53;;;;;;;8.52;4.65;;;;;;;14.33;64.13;103667.72;5133139;27;20465;-62
2021/12/16 10:22:26;;;;;;;10.80;5.15;;;;;;;14.29;64.23;103657.22;5134135;27;20027;-62
2021/12/16 10:24:54;;;;;;;9.27;5.15;;;;;;;14.35;64.12;103676.47;5134328;27;20035;-63
2021/12/16 10:27:26;;;;;;;9.88;5.10;;;;;;;14.33;63.78;103653.81;5134078;27;20403;-62
2021/12/16 10:29:56;;;;;;;8.68;4.95;;;;;;;14.30;64.01;103654.63;5134244;28;20027;-62
2021/12/16 10:32:34;;;;;;;9.70;4.97;;;;;;;14.38;63.96;103672.16;5134439;28;20023;-62
2021/12/16 10:35:02;;;;;;;8.77;4.57;;;;;;;14.35;64.17;103679.09;5134035;28;20103;-62
2021/12/16 10:37:33;;;;;;;9.05;5.22;;;;;;;14.33;63.98;103665.13;5134255;28;20057;-62
2021/12/16 10:40:36;;;;;;;9.45;4.90;;;;;;;14.40;63.97;103681.75;5134340;28;20118;-62
2021/12/16 10:43:14;;;;;;;10.05;4.80;;;;;;;14.38;63.87;103678.25;5133642;28;20078;-62
2021/12/16 10:45:46;;;;;;;9.52;5.10;;;;;;;14.37;64.04;103668.66;5133958;28;20092;-62
2021/12/16 10:48:14;;;;;;;9.50;4.85;;;;;;;14.41;63.93;103680.03;5134058;28;20027;-63
2021/12/16 10:50:52;;;;;;;8.40;4.70;;;;;;;14.42;63.90;103687.00;5134174;28;20019;-62
2021/12/16 10:53:48;;;;;;;9.10;4.88;;;;;;;14.44;63.88;103686.19;5133859;28;20031;-62
2021/12/16 10:56:13;;;;;;;;;;;;;;;14.49;63.88;103684.50;5134346;28;20110;-62
2021/12/16 10:58:48;;;;;;;9.65;4.97;;;;;;;14.40;63.93;103680.91;5134080;28;20387;-62
2021/12/16 11:01:51;;;;;;;8.40;4.93;;;;;;;14.43;63.88;103679.22;5133764;28;20035;-62
2021/12/16 11:04:30;;;;;;;7.68;4.70;;;;;;;14.39;63.94;103679.13;5137918;27;20179;-62
2021/12/16 11:06:58;;;;;;;8.82;4.78;;;;;;;14.42;63.98;103695.72;5138191;27;20076;-63
2021/12/16 11:09:42;;;;;;;10.25;4.95;;;;;;;14.44;63.77;103699.25;5137917;27;20020;-62
2021/12/16 11:12:36;;;;;;;9.43;4.75;;;;;;;14.45;63.74;103690.56;5137713;27;20023;-62
2021/12/16 11:15:06;;;;;;;8.50;4.90;;;;;;;14.42;63.87;103690.50;5082075;27;20358;-63
2021/12/16 11:18:00;;;;;;;9.45;5.38;;;;;;;14.46;64.12;103701.88;5137309;27;20019;-61
2021/12/16 11:20:34;;;;;;;9.23;4.75;;;;;;;14.42;63.93;103700.06;5116894;28;20111;-62
2021/12/16 11:23:16;;;;;;;9.55;5.20;;;;;;;14.41;63.80;103690.50;5117500;27;20366;-62
2021/12/16 11:25:44;;;;;;;9.13;4.85;;;;;;;14.44;63.84;103700.97;5132758;27;20485;-62
2021/12/16 11:28:22;;;;;;;10.18;5.30;;;;;;;14.44;64.19;103700.97;5136748;27;20364;-62
2021/12/16 11:30:57;;;;;;;8.30;4.82;;;;;;;14.42;63.94;103692.22;5131066;27;20053;-62
2021/12/16 11:33:27;;;;;;;8.52;4.72;;;;;;;14.45;63.89;103700.13;5126359;27;20381;-62
2021/12/16 11:36:03;;;;;;;8.77;4.68;;;;;;;14.44;64.11;103693.13;5131816;27;20023;-62
2021/12/16 11:38:37;;;;;;;10.02;5.20;;;;;;;14.46;63.97;103692.31;5136602;27;20065;-63
2021/12/16 11:41:09;;;;;;;8.80;4.70;;;;;;;14.39;63.88;103677.38;5136635;27;20106;-60
2021/12/16 11:43:43;;;;;;;8.60;4.68;;;;;;;14.43;63.83;103684.44;5137116;27;20373;-62
2021/12/16 11:46:17;;;;;;;8.25;4.68;;;;;;;14.47;63.93;103687.97;5137027;27;20031;-62
2021/12/16 11:48:43;;;;;;;9.18;5.00;;;;;;;14.43;63.79;103683.53;5136732;27;20059;-61
2021/12/16 11:51:22;;;;;;;8.93;4.95;;;;;;;14.47;63.93;103694.03;5136664;27;20038;-63
2021/12/16 11:53:58;;;;;;;8.93;4.88;;;;;;;14.42;64.14;103682.66;5136837;27;20023;-62
2021/12/16 11:56:38;;;;;;;9.18;4.53;;;;;;;14.49;63.95;103681.03;5136830;27;20034;-62
2021/12/16 11:59:05;;;;;;;8.60;4.60;;;;;;;14.44;63.92;103686.19;5136955;27;20027;-63
2021/12/16 12:01:30;;;;;;;9.63;4.53;;;;;;;14.49;63.81;103673.19;5137022;27;20047;-63
2021/12/16 12:04:08;;;;;;;10.33;4.53;;;;;;;14.49;64.06;103676.66;5137140;27;20054;-63
2021/12/16 12:06:36;;;;;;;7.85;4.30;;;;;;;14.48;64.11;103674.03;5136871;27;20533;-63
2021/12/16 12:09:04;;;;;;;9.73;4.50;;;;;;;14.47;63.98;103678.38;5136428;27;20084;-63
2021/12/16 12:11:33;;;;;;;10.02;4.50;;;;;;;14.45;63.84;103669.66;5136458;27;20473;-63
2021/12/16 12:14:02;;;;;;;8.68;4.65;;;;;;;14.47;64.30;103673.13;5135473;27;20114;-63
2021/12/16 12:16:39;;;;;;;8.40;4.68;;;;;;;14.49;64.10;103671.44;5136621;27;20035;-63
2021/12/16 12:19:18;;;;;;;;;;;;;;;14.58;63.78;103675.91;5136916;27;20055;-63
2021/12/16 12:21:54;;;;;;;9.45;4.57;;;;;;;14.50;64.00;103670.56;5136448;27;20277;-63
2021/12/16 12:24:21;;;;;;;10.40;4.72;;;;;;;14.50;64.24;103667.97;5136905;27;20023;-63
2021/12/16 12:26:54;;;;;;;8.10;4.45;;;;;;;14.49;63.96;103666.22;5136543;27;20453;-63
2021/12/16 12:29:27;;;;;;;8.65;4.47;;;;;;;14.47;64.08;103659.22;5136557;27;20096;-63
2021/12/16 12:31:56;;;;;;;7.68;4.22;;;;;;;14.50;64.16;103667.97;5136227;27;20027;-63
2021/12/16 12:34:22;;;;;;;9.32;4.60;;;;;;;14.49;64.17;103668.81;5136269;27;20040;-64
2021/12/16 12:36:50;;;;;;;9.77;4.73;;;;;;;14.51;64.28;103671.47;5136329;27;20362;-64
2021/12/16 12:39:20;;;;;;;8.40;4.68;;;;;;;14.45;63.75;103655.69;5136080;27;20042;-62
2021/12/16 12:41:46;;;;;;;8.85;4.35;;;;;;;14.47;64.16;103661.81;5135868;27;20350;-63
2021/12/16 12:44:12;;;;;;;7.47;4.20;;;;;;;14.52;64.05;103665.41;5135795;27;20027;-63
2021/12/16 12:46:39;;;;;;;8.07;4.47;;;;;;;14.47;64.00;103659.22;5134042;27;20027;-63
2021/12/16 12:49:06;;;;;;;;;;;;;;;14.59;63.84;103661.09;5136518;27;20378;-63
2021/12/16 12:51:40;;;;;;;7.53;4.20;;;;;;;14.45;63.84;103653.09;5136000;27;19907;-63
2021/12/16 12:54:27;;;;;;;6.15;4.15;;;;;;;14.54;63.81;103674.09;5135971;27;20031;-63
2021/12/16 12:56:57;;;;;;;8.25;4.30;;;;;;;14.49;64.11;103665.34;5135121;27;20031;-63
2021/12/16 12:59:37;;;;;;;8.60;4.20;;;;;;;14.52;63.96;103666.25;5134316;27;20040;-63
